Terminal Aerodrome Forecast
Issued by NWS

Home | Current Version | Previous Version | Graphics & Text | Print | Product List | Glossary On
Versions: 1 2 3 4 5 6 7 8 9 10 11 12 13 14 15 16 17
000
FTUS43 KMPX 230200 AAA
TAFAXN
TAF AMD
KAXN 230236Z 2303/2324 18009KT 3SM -RA BR BKN008 OVC016
      TEMPO 2303/2305 6SM BR SCT008 BKN016
     FM230500 19009KT P6SM SCT016 BKN050
     FM230700 24006KT P6SM SCT050
     FM231400 25010KT P6SM SKC=

USA.gov is the U.S. government's official web portal to all federal, state and local government web resources and services.